Time;durP1;ratioP1;P1;durP2;ratioP2;P2;SDS_P1;SDS_P2;PMS_P1;PMS_P2;Temp;Humidity;BMP_temperature;BMP_pressure;BME280_temperature;BME280_humidity;BME280_pressure;Samples;Min_cycle;Max_cycle;Signal;HPM_P1;HPM_P2
2024/01/12 00:01:18;;;;;;;51.43;22.20;;;-6.10;99.90;;;;;;5123140;27;20187;-76
2024/01/12 00:03:43;;;;;;;67.83;23.90;;;-6.00;99.90;;;;;;5126178;27;20304;-69
2024/01/12 00:06:09;;;;;;;48.80;19.90;;;-6.10;99.90;;;;;;5119417;27;20699;-69
2024/01/12 00:08:37;;;;;;;54.97;22.40;;;-6.20;99.90;;;;;;5125894;27;20182;-69
2024/01/12 00:11:03;;;;;;;48.07;20.90;;;-6.20;99.90;;;;;;5113292;27;20409;-69
2024/01/12 00:13:28;;;;;;;61.40;22.53;;;-6.20;99.90;;;;;;5115289;28;20409;-76
2024/01/12 00:15:54;;;;;;;52.10;22.63;;;-6.10;99.90;;;;;;5135336;27;20179;-77
2024/01/12 00:18:19;;;;;;;54.57;21.03;;;-6.20;99.90;;;;;;5123975;27;20195;-76
2024/01/12 00:20:45;;;;;;;54.63;21.70;;;-6.30;99.90;;;;;;5119554;27;20184;-77
2024/01/12 00:23:10;;;;;;;45.30;20.50;;;-6.30;99.90;;;;;;5119438;27;20213;-76
2024/01/12 00:25:36;;;;;;;43.40;20.80;;;-6.30;99.90;;;;;;5122407;27;20651;-76
2024/01/12 00:28:01;;;;;;;55.47;22.47;;;-6.30;99.90;;;;;;5135778;27;20514;-69
2024/01/12 00:30:27;;;;;;;63.63;20.93;;;-6.20;99.90;;;;;;5133723;27;20218;-69
2024/01/12 00:32:52;;;;;;;47.83;19.43;;;-6.20;99.90;;;;;;5134336;27;20889;-76
2024/01/12 00:35:18;;;;;;;53.27;21.27;;;-6.20;99.90;;;;;;5116980;27;20184;-76
2024/01/12 00:37:43;;;;;;;43.73;19.63;;;-6.20;99.90;;;;;;5123061;27;20186;-76
2024/01/12 00:40:09;;;;;;;55.13;20.17;;;-6.20;99.90;;;;;;5120411;27;20650;-76
2024/01/12 00:42:35;;;;;;;54.07;20.97;;;-6.20;99.90;;;;;;5135814;27;20265;-76
2024/01/12 00:45:00;;;;;;;58.40;20.60;;;-6.10;99.90;;;;;;5123367;27;20472;-76
2024/01/12 00:47:26;;;;;;;63.00;22.67;;;-6.20;99.90;;;;;;5135565;27;20175;-76
2024/01/12 00:49:51;;;;;;;56.83;22.50;;;-6.20;99.90;;;;;;5117488;27;20190;-77
2024/01/12 00:52:17;;;;;;;59.00;20.73;;;-6.20;99.90;;;;;;5115372;28;20175;-76
2024/01/12 00:54:42;;;;;;;49.00;21.23;;;-6.30;99.90;;;;;;5128309;27;20200;-76
2024/01/12 00:57:08;;;;;;;52.80;20.43;;;-6.50;99.90;;;;;;5115464;28;20172;-76
2024/01/12 00:59:33;;;;;;;48.57;18.03;;;-6.50;99.90;;;;;;5099569;28;20180;-69
2024/01/12 01:01:59;;;;;;;50.03;20.07;;;-6.50;99.90;;;;;;5122205;27;20190;-69
2024/01/12 01:04:25;;;;;;;50.73;17.43;;;-6.40;99.90;;;;;;5112705;28;20183;-69
2024/01/12 01:06:52;;;;;;;52.67;21.27;;;-6.40;99.90;;;;;;5112445;28;20237;-69
2024/01/12 01:09:18;;;;;;;60.03;19.53;;;-6.40;99.90;;;;;;5132336;27;20416;-76
2024/01/12 01:11:43;;;;;;;48.13;19.93;;;-6.30;99.90;;;;;;5122711;27;20411;-76
2024/01/12 01:14:09;;;;;;;46.90;20.70;;;-6.30;99.90;;;;;;5128573;27;20510;-76
2024/01/12 01:16:34;;;;;;;43.60;18.60;;;-6.40;99.90;;;;;;5118029;27;20220;-76
2024/01/12 01:19:00;;;;;;;50.97;20.50;;;-6.40;99.90;;;;;;5116411;27;20184;-76
2024/01/12 01:21:26;;;;;;;52.80;20.43;;;-6.40;99.90;;;;;;5126627;27;20179;-76
2024/01/12 01:23:51;;;;;;;51.77;20.07;;;-6.40;99.90;;;;;;5116236;28;20176;-76
2024/01/12 01:26:17;;;;;;;60.33;22.00;;;-6.30;99.90;;;;;;5126259;27;20456;-76
2024/01/12 01:28:42;;;;;;;53.83;20.00;;;-6.40;99.90;;;;;;5121341;27;20198;-76
2024/01/12 01:31:08;;;;;;;55.47;20.30;;;-6.40;99.90;;;;;;5123246;27;20175;-76
2024/01/12 01:33:34;;;;;;;55.70;20.70;;;-6.40;99.90;;;;;;5118881;27;20171;-76
2024/01/12 01:35:59;;;;;;;48.53;19.20;;;-6.50;99.90;;;;;;5122254;27;20229;-76
2024/01/12 01:38:25;;;;;;;54.27;20.20;;;-6.40;99.90;;;;;;5121352;27;20184;-69
2024/01/12 01:40:50;;;;;;;46.47;19.03;;;-6.40;99.90;;;;;;5112214;28;20175;-69
2024/01/12 01:43:16;;;;;;;48.97;20.47;;;-6.40;99.90;;;;;;5115309;28;20176;-76
2024/01/12 01:45:41;;;;;;;52.60;20.30;;;-6.40;99.90;;;;;;5116807;27;20268;-76
2024/01/12 01:48:08;;;;;;;49.40;19.70;;;-6.50;99.90;;;;;;5120571;28;20175;-76
2024/01/12 01:50:34;;;;;;;39.40;16.20;;;-6.60;99.90;;;;;;5134817;27;20167;-76
2024/01/12 01:53:00;;;;;;;43.87;18.03;;;-6.60;99.90;;;;;;5115724;28;20414;-69
2024/01/12 01:55:29;;;;;;;49.57;19.13;;;-6.60;99.90;;;;;;5112633;28;20421;-69
2024/01/12 01:57:55;;;;;;;54.13;20.07;;;-6.60;99.90;;;;;;5122183;27;20487;-69
2024/01/12 02:00:22;;;;;;;44.57;19.37;;;-6.60;99.90;;;;;;5124411;28;20454;-69
2024/01/12 02:02:48;;;;;;;45.83;19.80;;;-6.70;99.90;;;;;;5117219;28;20457;-76
2024/01/12 02:05:14;;;;;;;49.43;19.70;;;-6.90;99.90;;;;;;5114805;28;20480;-76
2024/01/12 02:07:41;;;;;;;47.43;20.80;;;-7.10;99.90;;;;;;5128747;28;20493;-76
2024/01/12 02:10:07;;;;;;;44.83;19.13;;;-7.10;99.90;;;;;;5121241;28;20750;-76
2024/01/12 02:12:37;;;;;;;41.33;18.30;;;-7.00;99.90;;;;;;5118550;28;20428;-76
2024/01/12 02:15:08;;;;;;;48.90;20.70;;;-7.00;99.90;;;;;;5134553;28;20428;-76
2024/01/12 02:17:35;;;;;;;48.63;18.37;;;-6.90;99.90;;;;;;5127814;28;20405;-76
2024/01/12 02:20:00;;;;;;;48.10;17.30;;;-6.80;99.90;;;;;;5127669;28;20782;-76
2024/01/12 02:22:26;;;;;;;51.53;19.30;;;-6.80;99.90;;;;;;5113960;28;20480;-76
2024/01/12 02:24:52;;;;;;;47.90;18.63;;;-6.70;99.90;;;;;;5116067;28;20172;-75
2024/01/12 02:27:19;;;;;;;49.20;19.33;;;-6.70;99.90;;;;;;5106968;28;20454;-75
2024/01/12 02:29:45;;;;;;;51.00;18.70;;;-6.70;99.90;;;;;;5112951;28;20425;-69
2024/01/12 02:32:10;;;;;;;45.33;17.83;;;-6.70;99.90;;;;;;5111859;28;21241;-69
2024/01/12 02:34:36;;;;;;;37.90;17.30;;;-6.80;99.90;;;;;;5127840;28;20396;-76
2024/01/12 02:37:01;;;;;;;44.33;19.07;;;-6.80;99.90;;;;;;5128301;28;20184;-75
2024/01/12 02:39:27;;;;;;;39.33;17.50;;;-6.70;99.90;;;;;;5123459;28;20232;-69
2024/01/12 02:41:57;;;;;;;45.33;20.30;;;-6.70;99.90;;;;;;5125610;28;20191;-69
2024/01/12 02:44:26;;;;;;;44.97;19.20;;;-6.70;99.90;;;;;;5111429;28;20212;-69
2024/01/12 02:46:52;;;;;;;43.87;17.70;;;-6.80;99.90;;;;;;5111393;28;20459;-69
2024/01/12 02:49:17;;;;;;;48.73;19.03;;;-6.80;99.90;;;;;;5127773;28;20492;-76
2024/01/12 02:51:43;;;;;;;45.20;18.63;;;-6.60;99.90;;;;;;5127045;28;20172;-76
2024/01/12 02:54:08;;;;;;;45.33;18.63;;;-6.70;99.90;;;;;;5113462;28;20259;-76
2024/01/12 02:56:35;;;;;;;44.90;18.40;;;-6.80;99.90;;;;;;5109376;28;20508;-76
2024/01/12 02:59:00;;;;;;;50.43;20.00;;;-6.90;99.90;;;;;;5106811;28;20187;-69
2024/01/12 03:01:27;;;;;;;51.33;19.90;;;-6.90;99.90;;;;;;5111523;28;20749;-69
2024/01/12 03:03:52;;;;;;;50.50;20.63;;;-7.00;99.90;;;;;;5111291;28;20224;-69
2024/01/12 03:06:18;;;;;;;45.20;18.83;;;-7.00;99.90;;;;;;5103583;28;20913;-69
2024/01/12 03:08:43;;;;;;;44.80;18.70;;;-6.90;99.90;;;;;;5124627;27;20171;-69
2024/01/12 03:11:09;;;;;;;41.17;18.63;;;-6.90;99.90;;;;;;5115168;28;20184;-69
2024/01/12 03:13:35;;;;;;;48.87;17.87;;;-6.80;99.90;;;;;;5115057;28;20175;-69
2024/01/12 03:16:00;;;;;;;49.47;19.10;;;-6.80;99.90;;;;;;5115507;28;20608;-69
2024/01/12 03:18:27;;;;;;;44.97;19.57;;;-6.90;99.90;;;;;;5115569;28;20251;-76
2024/01/12 03:20:53;;;;;;;37.17;17.00;;;-6.80;99.90;;;;;;5124481;27;20182;-76
2024/01/12 03:23:18;;;;;;;43.80;17.93;;;-6.90;99.90;;;;;;5118481;27;20419;-76
2024/01/12 03:25:44;;;;;;;46.13;18.70;;;-7.00;99.90;;;;;;5133242;27;20203;-76
2024/01/12 03:28:09;;;;;;;48.23;19.47;;;-6.90;99.90;;;;;;5123055;27;20531;-76
2024/01/12 03:30:35;;;;;;;47.70;19.10;;;-7.00;99.90;;;;;;5123759;27;20232;-75
2024/01/12 03:33:00;;;;;;;53.60;19.00;;;-7.00;99.90;;;;;;5095349;28;20198;-69
2024/01/12 03:35:26;;;;;;;41.93;18.27;;;-6.90;99.90;;;;;;5128644;27;20622;-69
2024/01/12 03:37:51;;;;;;;53.17;20.40;;;-7.00;99.90;;;;;;5124207;27;20181;-69
2024/01/12 03:40:17;;;;;;;44.10;19.20;;;-7.20;99.90;;;;;;5121500;27;20175;-69
2024/01/12 03:42:43;;;;;;;48.13;18.93;;;-7.10;99.90;;;;;;5121338;27;20176;-76
2024/01/12 03:45:09;;;;;;;43.63;17.87;;;-7.10;99.90;;;;;;5122876;27;20983;-76
2024/01/12 03:47:34;;;;;;;53.40;18.67;;;-7.10;99.90;;;;;;5123354;27;20221;-75
2024/01/12 03:50:00;;;;;;;44.60;19.10;;;-7.00;99.90;;;;;;5129890;27;20417;-75
2024/01/12 03:52:25;;;;;;;47.77;18.43;;;-7.10;99.90;;;;;;5123689;27;20259;-75
2024/01/12 03:54:51;;;;;;;55.80;20.37;;;-7.10;99.90;;;;;;5136056;27;20175;-76
2024/01/12 03:57:16;;;;;;;39.83;17.53;;;-7.20;99.90;;;;;;5130497;27;20642;-75
2024/01/12 03:59:42;;;;;;;50.23;20.50;;;-7.10;99.90;;;;;;5099927;27;20180;-76
2024/01/12 04:02:07;;;;;;;47.10;18.80;;;-6.90;99.90;;;;;;5136734;27;20190;-76
2024/01/12 04:04:33;;;;;;;45.20;19.10;;;-7.00;99.90;;;;;;5116945;27;20176;-76
2024/01/12 04:06:58;;;;;;;45.30;19.17;;;-7.00;99.90;;;;;;5128935;27;20198;-76
2024/01/12 04:09:24;;;;;;;47.27;19.03;;;-7.00;99.90;;;;;;5130093;27;20168;-75
2024/01/12 04:11:49;;;;;;;44.63;20.00;;;-7.00;99.90;;;;;;5127716;27;20222;-76
2024/01/12 04:14:15;;;;;;;45.00;19.40;;;-7.20;99.90;;;;;;5129975;27;20275;-75
2024/01/12 04:16:40;;;;;;;48.83;20.03;;;-7.20;99.90;;;;;;5128547;27;20795;-76
2024/01/12 04:19:06;;;;;;;49.67;20.90;;;-7.10;99.90;;;;;;5128529;27;20183;-76
2024/01/12 04:21:31;;;;;;;50.70;20.13;;;-7.20;99.90;;;;;;5119634;27;20613;-76
2024/01/12 04:23:57;;;;;;;52.20;20.07;;;-7.10;99.90;;;;;;5128947;27;20176;-76
2024/01/12 04:26:22;;;;;;;48.90;20.63;;;-7.20;99.90;;;;;;5107591;28;20576;-75
2024/01/12 04:28:48;;;;;;;43.17;18.63;;;-7.00;99.90;;;;;;5128991;27;20184;-75
2024/01/12 04:31:13;;;;;;;53.20;19.40;;;-7.20;99.90;;;;;;5115490;28;20180;-75
2024/01/12 04:33:40;;;;;;;49.80;21.13;;;-7.20;99.90;;;;;;5128997;27;20592;-75
2024/01/12 04:36:06;;;;;;;50.50;20.53;;;-7.20;99.90;;;;;;5127458;27;20183;-75
2024/01/12 04:38:32;;;;;;;45.67;19.40;;;-7.20;99.90;;;;;;5106183;27;20904;-68
2024/01/12 04:40:57;;;;;;;54.50;18.57;;;-7.20;99.90;;;;;;5113592;28;20421;-69
2024/01/12 04:43:23;;;;;;;50.73;19.50;;;-7.20;99.90;;;;;;5115956;27;20179;-76
2024/01/12 04:45:48;;;;;;;50.03;18.90;;;-7.10;99.90;;;;;;5126838;27;20231;-76
2024/01/12 04:48:14;;;;;;;50.37;19.73;;;-7.20;99.90;;;;;;5121692;27;20179;-76
2024/01/12 04:50:39;;;;;;;53.00;19.10;;;-7.20;99.90;;;;;;5124358;27;20540;-75
2024/01/12 04:53:05;;;;;;;60.03;23.20;;;-7.40;99.90;;;;;;5124121;27;20654;-69
2024/01/12 04:55:31;;;;;;;57.87;19.20;;;-7.50;99.90;;;;;;5121615;27;20183;-69
2024/01/12 04:57:56;;;;;;;49.93;21.17;;;-7.50;99.90;;;;;;5113364;28;20628;-75
2024/01/12 05:00:22;;;;;;;68.00;22.53;;;-7.40;99.90;;;;;;5114919;28;20187;-75
2024/01/12 05:02:47;;;;;;;51.17;22.93;;;-7.50;99.90;;;;;;5118742;27;20197;-69
2024/01/12 05:05:13;;;;;;;57.57;21.50;;;-7.50;99.90;;;;;;5121781;27;20211;-69
2024/01/12 05:07:38;;;;;;;59.57;22.23;;;-7.40;99.90;;;;;;5112538;28;20175;-69
2024/01/12 05:10:05;;;;;;;55.50;23.37;;;-7.20;99.90;;;;;;5112718;28;20179;-69
2024/01/12 05:12:31;;;;;;;65.53;23.73;;;-7.30;99.90;;;;;;5117493;27;20621;-76
2024/01/12 05:14:56;;;;;;;49.63;20.50;;;-7.40;99.90;;;;;;5123253;27;20500;-75
2024/01/12 05:17:25;;;;;;;46.90;20.23;;;-7.50;99.90;;;;;;5128263;27;20248;-75
2024/01/12 05:19:50;;;;;;;65.67;22.20;;;-7.50;99.90;;;;;;5106141;28;20175;-75
2024/01/12 05:22:16;;;;;;;50.40;19.30;;;-7.40;99.90;;;;;;5127801;27;20715;-75
2024/01/12 05:24:41;;;;;;;50.33;19.33;;;-7.40;99.90;;;;;;5126478;27;20266;-75
2024/01/12 05:27:07;;;;;;;48.77;21.03;;;-7.50;99.90;;;;;;5121156;27;20234;-75
2024/01/12 05:29:33;;;;;;;54.93;21.07;;;-7.50;99.90;;;;;;5134714;27;20563;-75
2024/01/12 05:32:00;;;;;;;52.03;17.40;;;-7.50;99.90;;;;;;5134327;27;20491;-75
2024/01/12 05:34:25;;;;;;;50.07;19.73;;;-7.60;99.90;;;;;;5122544;27;20770;-75
2024/01/12 05:36:51;;;;;;;53.03;21.00;;;-7.70;99.90;;;;;;5119326;27;20424;-76
2024/01/12 05:39:16;;;;;;;53.30;19.27;;;-7.70;99.90;;;;;;5112676;28;20285;-69
2024/01/12 05:41:42;;;;;;;57.30;21.33;;;-7.50;99.90;;;;;;5114812;27;20513;-69
2024/01/12 05:44:07;;;;;;;45.20;18.57;;;-7.50;99.90;;;;;;5125238;27;20221;-75
2024/01/12 05:46:33;;;;;;;51.37;19.40;;;-7.50;99.90;;;;;;5115834;27;20218;-75
2024/01/12 05:49:00;;;;;;;56.30;20.13;;;-7.50;99.90;;;;;;5103332;28;20557;-69
2024/01/12 05:51:26;;;;;;;46.80;17.77;;;-7.50;99.90;;;;;;5110416;28;20663;-69
2024/01/12 05:53:51;;;;;;;44.33;20.47;;;-7.50;99.90;;;;;;5111792;28;20425;-69
2024/01/12 05:56:17;;;;;;;41.33;17.47;;;-7.40;99.90;;;;;;5117309;28;20623;-69
2024/01/12 05:58:42;;;;;;;48.50;17.90;;;-7.30;99.90;;;;;;5101821;28;20255;-75
2024/01/12 06:01:08;;;;;;;48.30;17.67;;;-7.20;99.90;;;;;;5130974;28;20178;-76
2024/01/12 06:03:34;;;;;;;36.73;17.17;;;-7.40;99.90;;;;;;5122555;28;20172;-75
2024/01/12 06:06:00;;;;;;;48.77;20.53;;;-7.50;99.90;;;;;;5132142;28;20206;-75
2024/01/12 06:08:26;;;;;;;42.30;19.03;;;-7.50;99.90;;;;;;5119515;28;20172;-69
2024/01/12 06:10:51;;;;;;;40.43;19.07;;;-7.50;99.90;;;;;;5125422;28;20471;-69
2024/01/12 06:13:17;;;;;;;47.57;20.93;;;-7.40;99.90;;;;;;5104429;28;20184;-69
2024/01/12 06:15:43;;;;;;;61.10;21.90;;;-7.40;99.90;;;;;;5129876;28;20190;-68
2024/01/12 06:18:08;;;;;;;50.30;21.60;;;-7.40;99.90;;;;;;5120725;28;20254;-69
2024/01/12 06:20:34;;;;;;;70.87;26.03;;;-7.50;99.90;;;;;;5116549;28;20725;-69
2024/01/12 06:23:00;;;;;;;60.80;21.60;;;-7.50;99.90;;;;;;5121353;28;20191;-75
2024/01/12 06:25:25;;;;;;;59.20;22.23;;;-7.40;99.90;;;;;;5113587;28;20445;-75
2024/01/12 06:27:51;;;;;;;53.53;20.63;;;-7.50;99.90;;;;;;5094592;28;20651;-75
2024/01/12 06:30:17;;;;;;;51.63;20.23;;;-7.40;99.90;;;;;;5129153;28;20186;-75
2024/01/12 06:32:43;;;;;;;66.80;19.97;;;-7.50;99.90;;;;;;5122804;28;20184;-76
2024/01/12 06:35:10;;;;;;;58.47;23.30;;;-7.40;99.90;;;;;;5127356;28;20271;-75
2024/01/12 06:37:36;;;;;;;75.83;26.40;;;-7.50;99.90;;;;;;5118052;28;20405;-76
2024/01/12 06:40:02;;;;;;;76.13;30.43;;;-7.60;99.90;;;;;;5118057;28;20408;-76
2024/01/12 06:42:28;;;;;;;71.97;25.90;;;-7.80;99.90;;;;;;5125826;28;20431;-76
2024/01/12 06:44:54;;;;;;;63.33;23.23;;;-7.70;99.90;;;;;;5117925;27;20462;-76
2024/01/12 06:47:20;;;;;;;69.43;25.60;;;-7.90;99.90;;;;;;5117349;28;20730;-76
2024/01/12 06:49:45;;;;;;;60.20;23.67;;;-7.80;99.90;;;;;;5109518;27;20409;-76
2024/01/12 06:52:11;;;;;;;61.97;22.97;;;-7.80;99.90;;;;;;5126551;27;20176;-76
2024/01/12 06:54:37;;;;;;;53.07;23.33;;;-7.80;99.90;;;;;;5093395;28;20613;-68
2024/01/12 06:57:03;;;;;;;57.37;23.17;;;-7.90;99.90;;;;;;5106923;28;20429;-69
2024/01/12 06:59:28;;;;;;;58.50;24.00;;;-7.80;99.90;;;;;;5114099;28;20191;-69
2024/01/12 07:01:54;;;;;;;62.63;21.60;;;-7.70;99.90;;;;;;5115132;28;20180;-69
2024/01/12 07:04:19;;;;;;;55.57;21.30;;;-7.70;99.90;;;;;;5120766;27;20694;-76
2024/01/12 07:06:45;;;;;;;47.07;19.03;;;-7.70;99.90;;;;;;5128871;27;20294;-76
2024/01/12 07:09:12;;;;;;;54.63;21.37;;;-7.70;99.90;;;;;;5111015;27;20193;-76
2024/01/12 07:11:41;;;;;;;42.97;18.63;;;-7.80;99.90;;;;;;5117225;28;20181;-75
2024/01/12 07:14:08;;;;;;;42.60;19.83;;;-7.70;99.90;;;;;;5121761;27;20416;-76
2024/01/12 07:16:34;;;;;;;41.33;18.30;;;-7.70;99.90;;;;;;5126070;27;20455;-76
2024/01/12 07:18:59;;;;;;;57.20;22.13;;;-7.60;99.90;;;;;;5130486;27;20413;-76
2024/01/12 07:21:25;;;;;;;50.80;21.20;;;-7.60;99.90;;;;;;5128228;27;20179;-76
2024/01/12 07:23:50;;;;;;;53.20;21.60;;;-7.30;99.90;;;;;;5137459;27;20194;-75
2024/01/12 07:26:15;;;;;;;52.90;19.30;;;-7.50;99.90;;;;;;5137340;27;20222;-76
2024/01/12 07:28:41;;;;;;;58.73;21.93;;;-7.50;99.90;;;;;;5137624;27;20187;-76
2024/01/12 07:31:06;;;;;;;57.33;23.07;;;-7.50;99.90;;;;;;5126215;27;20176;-76
2024/01/12 07:33:32;;;;;;;73.13;25.77;;;-7.60;99.90;;;;;;5120510;27;20316;-76
2024/01/12 07:35:57;;;;;;;71.87;25.67;;;-7.70;99.90;;;;;;5130031;27;20175;-76
2024/01/12 07:38:24;;;;;;;61.50;23.10;;;-7.80;99.90;;;;;;5112613;27;20257;-76
2024/01/12 07:40:49;;;;;;;48.83;21.73;;;-7.70;99.90;;;;;;5119266;27;20178;-76
2024/01/12 07:43:15;;;;;;;60.50;20.87;;;-7.70;99.90;;;;;;5122940;27;20416;-76
2024/01/12 07:45:40;;;;;;;76.93;20.57;;;-7.60;99.90;;;;;;5130878;27;20235;-76
2024/01/12 07:48:07;;;;;;;51.73;18.50;;;-7.50;99.90;;;;;;5114761;28;20172;-70
2024/01/12 07:50:33;;;;;;;52.03;19.03;;;-7.40;99.90;;;;;;5114379;28;20172;-69
2024/01/12 07:52:59;;;;;;;53.80;18.57;;;-7.40;99.90;;;;;;5119273;27;20409;-75
2024/01/12 07:55:27;;;;;;;44.13;18.43;;;-7.40;99.90;;;;;;5124610;27;20433;-75
2024/01/12 07:57:53;;;;;;;45.27;18.63;;;-7.40;99.90;;;;;;5100789;28;20523;-72
2024/01/12 08:00:18;;;;;;;45.40;17.43;;;-7.40;99.90;;;;;;5087354;27;20477;-73
2024/01/12 08:02:44;;;;;;;37.83;17.50;;;-7.30;99.90;;;;;;5102892;27;20214;-73
2024/01/12 08:05:09;;;;;;;36.93;16.10;;;-7.30;99.90;;;;;;5116475;27;20232;-74
2024/01/12 08:07:36;;;;;;;37.43;18.13;;;-7.20;99.90;;;;;;5113686;28;20254;-67
2024/01/12 08:10:02;;;;;;;37.77;16.00;;;-7.00;99.90;;;;;;5104814;27;20175;-67
2024/01/12 08:12:27;;;;;;;38.40;15.30;;;-7.00;99.90;;;;;;5116246;27;20426;-67
2024/01/12 08:14:52;;;;;;;36.13;15.47;;;-7.00;99.90;;;;;;5105066;28;20271;-67
2024/01/12 08:17:18;;;;;;;36.67;15.50;;;-6.90;99.90;;;;;;5112503;27;20210;-67
2024/01/12 08:19:43;;;;;;;41.03;16.20;;;-6.80;99.90;;;;;;5112135;27;20180;-67
2024/01/12 08:22:09;;;;;;;51.93;17.67;;;-6.90;99.90;;;;;;5116475;27;20186;-67
2024/01/12 08:24:34;;;;;;;41.23;16.80;;;-6.90;99.90;;;;;;5121713;27;20237;-69
2024/01/12 08:27:00;;;;;;;36.97;16.20;;;-6.80;99.90;;;;;;5113628;28;20208;-69
2024/01/12 08:29:25;;;;;;;38.57;14.97;;;-6.60;99.90;;;;;;5106412;27;20600;-66
2024/01/12 08:31:51;;;;;;;42.80;17.00;;;-6.50;99.90;;;;;;5119470;27;20184;-67
2024/01/12 08:34:19;;;;;;;46.77;17.87;;;-6.40;99.90;;;;;;5111546;27;20661;-69
2024/01/12 08:36:45;;;;;;;41.33;16.60;;;-6.20;99.90;;;;;;5102811;27;20176;-69
2024/01/12 08:39:10;;;;;;;40.43;18.03;;;-6.10;99.90;;;;;;5113290;28;20424;-69
2024/01/12 08:41:36;;;;;;;46.17;18.30;;;-6.10;99.90;;;;;;5117782;27;20179;-70
2024/01/12 08:44:01;;;;;;;52.60;19.90;;;-6.10;99.90;;;;;;5121165;27;20807;-69
2024/01/12 08:46:27;;;;;;;46.07;19.20;;;-6.10;99.90;;;;;;5113030;28;20204;-69
2024/01/12 08:48:54;;;;;;;45.33;18.17;;;-6.00;99.90;;;;;;5113171;28;20270;-70
2024/01/12 08:51:20;;;;;;;45.10;20.87;;;-6.00;99.90;;;;;;5121095;27;20176;-70
2024/01/12 08:53:46;;;;;;;47.50;19.80;;;-5.80;99.90;;;;;;5122369;27;20409;-67
2024/01/12 08:56:11;;;;;;;39.00;17.60;;;-5.60;99.90;;;;;;5106492;27;20563;-67
2024/01/12 08:58:38;;;;;;;63.33;20.40;;;-5.40;99.90;;;;;;5110929;28;20283;-69
2024/01/12 09:01:03;;;;;;;46.93;20.43;;;-5.20;99.90;;;;;;5112995;27;20647;-69
2024/01/12 09:03:29;;;;;;;49.40;18.53;;;-5.20;99.90;;;;;;5121666;27;20413;-70
2024/01/12 09:05:54;;;;;;;70.07;21.03;;;-5.10;99.90;;;;;;5127965;27;20233;-70
2024/01/12 09:08:20;;;;;;;54.73;21.97;;;-5.00;99.90;;;;;;5116116;27;20184;-67
2024/01/12 09:10:45;;;;;;;48.93;19.40;;;-4.90;99.90;;;;;;5122346;27;20197;-67
2024/01/12 09:13:11;;;;;;;40.20;16.77;;;-4.80;99.90;;;;;;5116868;27;20207;-67
2024/01/12 09:15:36;;;;;;;37.67;17.40;;;-4.70;99.90;;;;;;5117215;27;20189;-67
2024/01/12 09:18:03;;;;;;;60.23;17.43;;;-4.60;99.90;;;;;;5111725;28;20600;-70
2024/01/12 09:20:29;;;;;;;35.70;14.93;;;-4.50;99.90;;;;;;5113042;28;20168;-70
2024/01/12 09:22:54;;;;;;;32.80;16.30;;;-4.40;99.90;;;;;;5108236;28;20440;-70
2024/01/12 09:25:20;;;;;;;34.00;15.20;;;-4.30;99.90;;;;;;5107134;28;20639;-70
2024/01/12 09:27:45;;;;;;;43.07;15.80;;;-4.30;99.90;;;;;;5111072;27;20176;-70
2024/01/12 09:30:11;;;;;;;41.53;16.17;;;-4.10;99.90;;;;;;5104451;28;20187;-70
2024/01/12 09:32:37;;;;;;;51.97;16.37;;;-4.10;99.90;;;;;;5111515;28;20171;-67
2024/01/12 09:35:02;;;;;;;37.00;15.07;;;-4.00;99.90;;;;;;5111677;28;20916;-68
2024/01/12 09:37:28;;;;;;;28.13;14.93;;;-4.00;99.90;;;;;;5111775;28;20171;-70
2024/01/12 09:39:53;;;;;;;54.73;18.03;;;-4.00;99.90;;;;;;5114997;27;20213;-70
2024/01/12 09:42:23;;;;;;;38.77;18.00;;;-3.80;99.90;;;;;;5109603;27;20167;-70
2024/01/12 09:44:50;;;;;;;34.60;15.27;;;-3.50;99.90;;;;;;5111604;28;20224;-70
2024/01/12 09:47:16;;;;;;;36.60;15.67;;;-3.30;99.90;;;;;;5112202;28;20465;-71
2024/01/12 09:49:43;;;;;;;51.10;18.87;;;-3.10;99.90;;;;;;5109091;28;20417;-70
2024/01/12 09:52:09;;;;;;;39.60;17.53;;;-2.90;99.90;;;;;;5111237;27;20294;-70
2024/01/12 09:54:35;;;;;;;42.70;16.83;;;-2.80;99.90;;;;;;5110731;28;20796;-70
2024/01/12 09:57:03;;;;;;;38.10;18.63;;;-2.70;99.90;;;;;;5111841;28;20417;-70
2024/01/12 09:59:28;;;;;;;47.67;18.43;;;-2.70;99.90;;;;;;5112160;28;21111;-70
2024/01/12 10:01:56;;;;;;;45.17;18.90;;;-2.60;99.90;;;;;;5116723;28;20418;-70
2024/01/12 10:04:22;;;;;;;42.57;16.70;;;-2.60;99.90;;;;;;5113309;28;20194;-70
2024/01/12 10:06:47;;;;;;;43.40;16.13;;;-2.50;99.90;;;;;;5112689;28;20461;-71
2024/01/12 10:09:13;;;;;;;34.33;13.30;;;-2.60;99.90;;;;;;5112276;28;20180;-68
2024/01/12 10:11:40;;;;;;;43.50;15.33;;;-2.40;99.90;;;;;;5114252;28;20882;-68
2024/01/12 10:14:06;;;;;;;47.73;15.80;;;-2.40;99.90;;;;;;5116963;28;20403;-71
2024/01/12 10:16:31;;;;;;;37.30;15.53;;;-2.50;99.90;;;;;;5120661;28;20939;-71
2024/01/12 10:18:57;;;;;;;38.43;16.03;;;-2.40;99.90;;;;;;5106184;28;20183;-72
2024/01/12 10:21:24;;;;;;;39.73;16.10;;;-2.20;99.90;;;;;;5114872;28;20195;-70
2024/01/12 10:24:01;;;;;;;34.30;16.90;;;-2.00;99.90;;;;;;5115378;27;20417;-71
2024/01/12 10:26:27;;;;;;;44.00;18.90;;;-1.90;99.90;;;;;;5108067;28;20473;-71
2024/01/12 10:28:52;;;;;;;43.43;18.50;;;-1.80;99.90;;;;;;5116099;28;20890;-71
2024/01/12 10:31:18;;;;;;;39.17;16.43;;;-1.70;99.90;;;;;;5116127;28;20263;-70
2024/01/12 10:33:45;;;;;;;45.53;19.03;;;-1.50;99.90;;;;;;5118267;27;20742;-70
2024/01/12 10:36:17;;;;;;;41.50;17.70;;;-1.30;99.90;;;;;;5117835;27;20208;-70
2024/01/12 10:38:44;;;;;;;49.77;18.33;;;-1.20;99.90;;;;;;5110000;27;20428;-70
2024/01/12 10:41:11;;;;;;;44.07;17.50;;;-1.10;99.90;;;;;;5117259;27;20428;-71
2024/01/12 10:43:38;;;;;;;40.67;17.70;;;-1.10;99.90;;;;;;5118390;27;20496;-71
2024/01/12 10:46:16;;;;;;;27.57;15.60;;;-1.10;99.90;;;;;;5115135;27;20477;-71
2024/01/12 10:48:48;;;;;;;43.90;17.27;;;-1.10;99.90;;;;;;5115228;28;20496;-70
2024/01/12 10:51:19;;;;;;;47.07;17.93;;;-1.00;99.90;;;;;;5115276;28;21239;-71
2024/01/12 10:54:01;;;;;;;40.13;18.97;;;-1.00;99.90;;;;;;5114660;27;20409;-69
2024/01/12 10:56:28;;;;;;;44.03;17.90;;;-0.70;99.90;;;;;;5112479;27;20421;-69
2024/01/12 10:58:54;;;;;;;37.40;18.03;;;-0.60;99.90;;;;;;5118185;27;20906;-69
2024/01/12 11:01:20;;;;;;;37.43;17.13;;;-0.50;99.90;;;;;;5115714;27;20414;-69
2024/01/12 11:03:47;;;;;;;39.00;16.83;;;-0.20;99.90;;;;;;5114233;28;20537;-71
2024/01/12 11:06:16;;;;;;;42.20;17.20;;;-0.40;99.90;;;;;;5124941;27;20999;-71
2024/01/12 11:08:42;;;;;;;42.73;18.73;;;-0.40;99.90;;;;;;5114991;28;20484;-71
2024/01/12 11:11:11;;;;;;;45.17;17.40;;;-0.30;99.90;;;;;;5120877;27;20529;-71
2024/01/12 11:13:37;;;;;;;50.77;19.83;;;-0.10;99.90;;;;;;5112386;27;20428;-69
2024/01/12 11:16:03;;;;;;;44.43;18.10;;;-0.10;99.90;;;;;;5118763;27;20989;-69
2024/01/12 11:18:29;;;;;;;38.43;15.90;;;-0.30;99.90;;;;;;5120392;27;20253;-71
2024/01/12 11:21:02;;;;;;;46.33;19.50;;;-0.10;99.90;;;;;;5119461;27;20501;-71
2024/01/12 11:23:28;;;;;;;43.17;19.17;;;0.10;99.90;;;;;;5123889;27;20175;-71
2024/01/12 11:25:53;;;;;;;41.60;18.77;;;0.20;99.90;;;;;;5126310;27;20450;-71
2024/01/12 11:28:19;;;;;;;40.90;17.57;;;0.50;99.90;;;;;;5115656;27;20176;-71
2024/01/12 11:30:49;;;;;;;35.90;17.67;;;0.60;99.90;;;;;;5114251;28;20258;-71
2024/01/12 11:33:16;;;;;;;44.27;18.57;;;0.70;99.60;;;;;;5118481;27;20172;-71
2024/01/12 11:35:47;;;;;;;38.43;18.10;;;0.50;99.90;;;;;;5124761;27;20904;-72
2024/01/12 11:38:12;;;;;;;39.13;18.07;;;0.60;99.90;;;;;;5128744;27;20834;-71
2024/01/12 11:40:42;;;;;;;56.60;18.30;;;0.70;99.70;;;;;;5117425;27;20424;-72
2024/01/12 11:43:16;;;;;;;41.23;17.73;;;0.70;99.90;;;;;;5114477;27;20180;-71
2024/01/12 11:45:42;;;;;;;45.83;18.53;;;0.50;99.90;;;;;;5112949;28;21108;-71
2024/01/12 11:48:08;;;;;;;39.53;17.63;;;0.60;99.80;;;;;;5114424;27;20408;-71
2024/01/12 11:50:33;;;;;;;42.03;18.87;;;0.60;99.90;;;;;;5115052;28;20763;-71
2024/01/12 11:53:00;;;;;;;41.53;18.13;;;1.80;99.90;;;;;;5114421;28;20479;-71
2024/01/12 11:55:26;;;;;;;45.33;19.10;;;0.40;99.90;;;;;;5112670;28;20202;-71
2024/01/12 11:57:53;;;;;;;38.07;17.40;;;0.20;99.90;;;;;;5114437;28;20462;-71
2024/01/12 12:00:20;;;;;;;50.77;19.27;;;0.30;99.90;;;;;;5114723;28;20440;-71
2024/01/12 12:02:46;;;;;;;39.00;17.90;;;0.50;99.90;;;;;;5113932;28;20416;-69
2024/01/12 12:05:12;;;;;;;41.63;17.43;;;0.40;99.90;;;;;;5114059;28;20409;-69
2024/01/12 12:07:38;;;;;;;37.43;18.57;;;0.30;99.90;;;;;;5112641;27;20203;-69
2024/01/12 12:10:05;;;;;;;43.77;17.83;;;0.40;99.90;;;;;;5107523;28;20228;-69
2024/01/12 12:12:31;;;;;;;53.17;20.03;;;0.50;99.90;;;;;;5113979;28;20409;-71
2024/01/12 12:15:04;;;;;;;43.77;17.77;;;0.70;99.90;;;;;;5114381;28;20451;-72
2024/01/12 12:17:31;;;;;;;41.77;19.10;;;0.90;99.90;;;;;;5113537;28;20182;-72
2024/01/12 12:19:57;;;;;;;36.13;17.13;;;0.60;99.90;;;;;;5114164;28;20405;-71
2024/01/12 12:22:24;;;;;;;51.13;20.00;;;0.50;99.90;;;;;;5127830;27;20985;-71